sensor_id;sensor_type;location;lat;lon;timestamp;temperature;humidity
8372;DHT22;4223;48.724;8.982;2022-07-30T00:02:21;15.60;99.90
8372;DHT22;4223;48.724;8.982;2022-07-30T00:04:48;15.60;97.90
8372;DHT22;4223;48.724;8.982;2022-07-30T00:07:15;15.60;99.80
8372;DHT22;4223;48.724;8.982;2022-07-30T00:09:42;15.50;97.50
8372;DHT22;4223;48.724;8.982;2022-07-30T00:12:10;15.50;95.00
8372;DHT22;4223;48.724;8.982;2022-07-30T00:14:37;15.50;96.10
8372;DHT22;4223;48.724;8.982;2022-07-30T00:17:04;15.60;96.90
8372;DHT22;4223;48.724;8.982;2022-07-30T00:19:32;15.60;98.30
8372;DHT22;4223;48.724;8.982;2022-07-30T00:21:59;15.60;94.40
8372;DHT22;4223;48.724;8.982;2022-07-30T00:24:26;15.70;98.40
8372;DHT22;4223;48.724;8.982;2022-07-30T00:26:52;15.70;95.90
8372;DHT22;4223;48.724;8.982;2022-07-30T00:29:21;15.70;96.30
8372;DHT22;4223;48.724;8.982;2022-07-30T00:31:47;15.80;95.10
8372;DHT22;4223;48.724;8.982;2022-07-30T00:34:14;15.70;92.10
8372;DHT22;4223;48.724;8.982;2022-07-30T00:36:41;15.70;92.60
8372;DHT22;4223;48.724;8.982;2022-07-30T00:39:08;15.70;94.40
8372;DHT22;4223;48.724;8.982;2022-07-30T00:41:53;15.80;95.60
8372;DHT22;4223;48.724;8.982;2022-07-30T00:44:22;15.80;94.80
8372;DHT22;4223;48.724;8.982;2022-07-30T00:46:49;15.90;95.60
8372;DHT22;4223;48.724;8.982;2022-07-30T00:49:16;15.90;90.00
8372;DHT22;4223;48.724;8.982;2022-07-30T00:51:43;15.90;80.30
8372;DHT22;4223;48.724;8.982;2022-07-30T00:54:10;16.00;76.80
8372;DHT22;4223;48.724;8.982;2022-07-30T00:56:37;16.00;82.20
8372;DHT22;4223;48.724;8.982;2022-07-30T00:59:04;16.10;66.40
8372;DHT22;4223;48.724;8.982;2022-07-30T01:01:33;16.10;53.40
8372;DHT22;4223;48.724;8.982;2022-07-30T01:04:00;16.10;46.10
8372;DHT22;4223;48.724;8.982;2022-07-30T01:06:27;16.20;54.00
8372;DHT22;4223;48.724;8.982;2022-07-30T01:08:54;16.20;45.70
8372;DHT22;4223;48.724;8.982;2022-07-30T01:11:22;16.20;52.90
8372;DHT22;4223;48.724;8.982;2022-07-30T01:13:52;16.20;32.20
8372;DHT22;4223;48.724;8.982;2022-07-30T01:16:19;16.30;16.40
8372;DHT22;4223;48.724;8.982;2022-07-30T01:18:49;16.30;23.20
8372;DHT22;4223;48.724;8.982;2022-07-30T01:21:38;16.30;30.90
8372;DHT22;4223;48.724;8.982;2022-07-30T01:24:14;16.40;63.20
8372;DHT22;4223;48.724;8.982;2022-07-30T01:26:48;16.40;61.70
8372;DHT22;4223;48.724;8.982;2022-07-30T01:29:16;16.40;42.40
8372;DHT22;4223;48.724;8.982;2022-07-30T01:31:45;16.40;58.40
8372;DHT22;4223;48.724;8.982;2022-07-30T01:34:14;16.30;56.60
8372;DHT22;4223;48.724;8.982;2022-07-30T01:36:43;16.30;73.90
8372;DHT22;4223;48.724;8.982;2022-07-30T01:39:12;16.30;59.00
8372;DHT22;4223;48.724;8.982;2022-07-30T01:41:41;15.90;61.30
8372;DHT22;4223;48.724;8.982;2022-07-30T01:44:11;16.20;47.60
8372;DHT22;4223;48.724;8.982;2022-07-30T01:46:39;16.10;77.90
8372;DHT22;4223;48.724;8.982;2022-07-30T01:49:07;16.10;78.80
8372;DHT22;4223;48.724;8.982;2022-07-30T01:51:36;16.10;66.00
8372;DHT22;4223;48.724;8.982;2022-07-30T01:54:06;16.00;67.30
8372;DHT22;4223;48.724;8.982;2022-07-30T01:56:34;16.00;61.70
8372;DHT22;4223;48.724;8.982;2022-07-30T01:59:04;15.90;83.80
8372;DHT22;4223;48.724;8.982;2022-07-30T02:01:34;15.90;92.20
8372;DHT22;4223;48.724;8.982;2022-07-30T02:04:01;15.80;74.90
8372;DHT22;4223;48.724;8.982;2022-07-30T02:06:32;15.80;90.60
8372;DHT22;4223;48.724;8.982;2022-07-30T02:09:03;15.80;83.80
8372;DHT22;4223;48.724;8.982;2022-07-30T02:11:33;15.70;72.20
8372;DHT22;4223;48.724;8.982;2022-07-30T02:14:23;15.60;78.90
8372;DHT22;4223;48.724;8.982;2022-07-30T02:16:54;15.50;75.60
8372;DHT22;4223;48.724;8.982;2022-07-30T02:19:25;15.50;85.70
8372;DHT22;4223;48.724;8.982;2022-07-30T02:22:02;15.50;92.80
8372;DHT22;4223;48.724;8.982;2022-07-30T02:24:31;15.50;83.10
8372;DHT22;4223;48.724;8.982;2022-07-30T02:27:03;15.40;91.30
8372;DHT22;4223;48.724;8.982;2022-07-30T02:29:34;15.40;92.80
8372;DHT22;4223;48.724;8.982;2022-07-30T02:32:07;15.30;92.10
8372;DHT22;4223;48.724;8.982;2022-07-30T02:34:38;15.30;94.10
8372;DHT22;4223;48.724;8.982;2022-07-30T02:37:07;15.20;96.30
8372;DHT22;4223;48.724;8.982;2022-07-30T02:39:37;15.20;92.50
8372;DHT22;4223;48.724;8.982;2022-07-30T02:42:06;15.10;91.20
8372;DHT22;4223;48.724;8.982;2022-07-30T02:44:36;15.20;98.10
8372;DHT22;4223;48.724;8.982;2022-07-30T02:47:06;15.10;96.60
8372;DHT22;4223;48.724;8.982;2022-07-30T02:49:35;15.00;93.90
8372;DHT22;4223;48.724;8.982;2022-07-30T02:52:04;15.00;92.60
8372;DHT22;4223;48.724;8.982;2022-07-30T02:54:35;14.90;91.00
8372;DHT22;4223;48.724;8.982;2022-07-30T02:57:03;14.90;90.80
8372;DHT22;4223;48.724;8.982;2022-07-30T02:59:32;14.80;91.40
8372;DHT22;4223;48.724;8.982;2022-07-30T03:02:02;14.80;94.80
8372;DHT22;4223;48.724;8.982;2022-07-30T03:04:32;14.80;97.30
8372;DHT22;4223;48.724;8.982;2022-07-30T03:07:00;14.80;99.00
8372;DHT22;4223;48.724;8.982;2022-07-30T03:09:27;14.80;95.80
8372;DHT22;4223;48.724;8.982;2022-07-30T03:11:56;14.80;97.10
8372;DHT22;4223;48.724;8.982;2022-07-30T03:14:23;14.70;97.50
8372;DHT22;4223;48.724;8.982;2022-07-30T03:16:54;14.70;99.90
8372;DHT22;4223;48.724;8.982;2022-07-30T03:19:22;14.60;99.90
8372;DHT22;4223;48.724;8.982;2022-07-30T03:21:55;14.60;97.60
8372;DHT22;4223;48.724;8.982;2022-07-30T03:24:23;14.60;99.20
8372;DHT22;4223;48.724;8.982;2022-07-30T03:26:51;14.60;99.90
8372;DHT22;4223;48.724;8.982;2022-07-30T03:29:21;14.60;98.90
8372;DHT22;4223;48.724;8.982;2022-07-30T03:31:49;14.60;99.90
8372;DHT22;4223;48.724;8.982;2022-07-30T03:34:17;14.50;99.90
8372;DHT22;4223;48.724;8.982;2022-07-30T03:36:45;14.50;99.90
8372;DHT22;4223;48.724;8.982;2022-07-30T03:39:14;14.40;99.90
8372;DHT22;4223;48.724;8.982;2022-07-30T03:41:41;14.40;99.30
8372;DHT22;4223;48.724;8.982;2022-07-30T03:44:08;14.30;96.60
8372;DHT22;4223;48.724;8.982;2022-07-30T03:46:36;14.30;99.90
8372;DHT22;4223;48.724;8.982;2022-07-30T03:49:04;14.30;98.40
8372;DHT22;4223;48.724;8.982;2022-07-30T03:51:31;14.30;99.90
8372;DHT22;4223;48.724;8.982;2022-07-30T03:53:58;14.30;99.90
8372;DHT22;4223;48.724;8.982;2022-07-30T03:56:27;14.30;99.90
8372;DHT22;4223;48.724;8.982;2022-07-30T03:58:54;14.30;99.90
8372;DHT22;4223;48.724;8.982;2022-07-30T04:01:23;14.20;97.00
8372;DHT22;4223;48.724;8.982;2022-07-30T04:03:51;14.20;99.90
8372;DHT22;4223;48.724;8.982;2022-07-30T04:06:17;14.20;97.30
8372;DHT22;4223;48.724;8.982;2022-07-30T04:08:44;14.10;98.40
8372;DHT22;4223;48.724;8.982;2022-07-30T04:11:11;14.20;99.90
8372;DHT22;4223;48.724;8.982;2022-07-30T04:13:39;14.10;98.90
8372;DHT22;4223;48.724;8.982;2022-07-30T04:16:10;14.10;98.20
8372;DHT22;4223;48.724;8.982;2022-07-30T04:18:41;14.10;99.90
8372;DHT22;4223;48.724;8.982;2022-07-30T04:21:11;14.10;99.90
8372;DHT22;4223;48.724;8.982;2022-07-30T04:23:41;14.00;95.60
8372;DHT22;4223;48.724;8.982;2022-07-30T04:26:09;14.00;98.30
8372;DHT22;4223;48.724;8.982;2022-07-30T04:28:36;14.00;99.90
8372;DHT22;4223;48.724;8.982;2022-07-30T04:31:04;14.00;99.90
8372;DHT22;4223;48.724;8.982;2022-07-30T04:33:31;14.00;97.90
8372;DHT22;4223;48.724;8.982;2022-07-30T04:35:58;14.10;99.90
8372;DHT22;4223;48.724;8.982;2022-07-30T04:38:25;14.10;99.90
8372;DHT22;4223;48.724;8.982;2022-07-30T04:40:52;14.10;99.90
8372;DHT22;4223;48.724;8.982;2022-07-30T04:43:19;14.10;99.90
8372;DHT22;4223;48.724;8.982;2022-07-30T04:45:46;14.10;99.90
8372;DHT22;4223;48.724;8.982;2022-07-30T04:48:14;14.10;99.90
8372;DHT22;4223;48.724;8.982;2022-07-30T04:50:44;14.10;99.60
8372;DHT22;4223;48.724;8.982;2022-07-30T04:53:11;14.20;99.90
8372;DHT22;4223;48.724;8.982;2022-07-30T04:55:40;14.20;99.90
8372;DHT22;4223;48.724;8.982;2022-07-30T04:58:09;14.20;99.50
8372;DHT22;4223;48.724;8.982;2022-07-30T05:00:38;14.30;99.90
8372;DHT22;4223;48.724;8.982;2022-07-30T05:03:06;14.40;99.90
8372;DHT22;4223;48.724;8.982;2022-07-30T05:05:35;14.50;99.90
8372;DHT22;4223;48.724;8.982;2022-07-30T05:08:03;14.50;99.90
8372;DHT22;4223;48.724;8.982;2022-07-30T05:10:30;14.50;98.50
8372;DHT22;4223;48.724;8.982;2022-07-30T05:12:57;14.60;99.90
8372;DHT22;4223;48.724;8.982;2022-07-30T05:15:24;14.70;98.10
8372;DHT22;4223;48.724;8.982;2022-07-30T05:17:51;14.70;97.00
8372;DHT22;4223;48.724;8.982;2022-07-30T05:20:18;14.80;97.40
8372;DHT22;4223;48.724;8.982;2022-07-30T05:22:46;14.90;96.40
8372;DHT22;4223;48.724;8.982;2022-07-30T05:25:13;15.00;95.90
8372;DHT22;4223;48.724;8.982;2022-07-30T05:27:39;15.00;95.30
8372;DHT22;4223;48.724;8.982;2022-07-30T05:30:08;15.10;91.40
8372;DHT22;4223;48.724;8.982;2022-07-30T05:32:35;15.10;58.40
8372;DHT22;4223;48.724;8.982;2022-07-30T05:35:02;15.30;80.40
8372;DHT22;4223;48.724;8.982;2022-07-30T05:37:29;15.40;65.80
8372;DHT22;4223;48.724;8.982;2022-07-30T05:39:57;15.40;46.60
8372;DHT22;4223;48.724;8.982;2022-07-30T05:42:24;15.50;17.50
8372;DHT22;4223;48.724;8.982;2022-07-30T05:44:51;15.70;12.20
8372;DHT22;4223;48.724;8.982;2022-07-30T05:47:17;15.70;14.70
8372;DHT22;4223;48.724;8.982;2022-07-30T05:49:45;15.80;5.60
8372;DHT22;4223;48.724;8.982;2022-07-30T05:52:12;15.90;1.00
8372;DHT22;4223;48.724;8.982;2022-07-30T05:54:39;16.00;1.00
8372;DHT22;4223;48.724;8.982;2022-07-30T05:57:07;16.10;1.00
8372;DHT22;4223;48.724;8.982;2022-07-30T05:59:34;16.20;1.00
8372;DHT22;4223;48.724;8.982;2022-07-30T06:02:01;16.30;1.00
8372;DHT22;4223;48.724;8.982;2022-07-30T06:04:29;16.40;1.00
8372;DHT22;4223;48.724;8.982;2022-07-30T06:06:55;16.50;1.00
8372;DHT22;4223;48.724;8.982;2022-07-30T06:09:22;16.60;1.00
8372;DHT22;4223;48.724;8.982;2022-07-30T06:11:49;16.70;1.00
8372;DHT22;4223;48.724;8.982;2022-07-30T06:14:17;16.70;1.00
8372;DHT22;4223;48.724;8.982;2022-07-30T06:16:44;16.90;1.00
8372;DHT22;4223;48.724;8.982;2022-07-30T06:19:11;17.00;1.00
8372;DHT22;4223;48.724;8.982;2022-07-30T06:21:38;17.10;1.00
8372;DHT22;4223;48.724;8.982;2022-07-30T06:24:06;17.20;1.00
8372;DHT22;4223;48.724;8.982;2022-07-30T06:26:33;17.30;1.00
8372;DHT22;4223;48.724;8.982;2022-07-30T06:29:00;17.50;1.00
8372;DHT22;4223;48.724;8.982;2022-07-30T06:31:28;17.80;94.40
8372;DHT22;4223;48.724;8.982;2022-07-30T06:33:55;17.90;99.90
8372;DHT22;4223;48.724;8.982;2022-07-30T06:36:22;18.10;99.90
8372;DHT22;4223;48.724;8.982;2022-07-30T06:38:49;18.30;1.00
8372;DHT22;4223;48.724;8.982;2022-07-30T06:41:15;18.40;99.90
8372;DHT22;4223;48.724;8.982;2022-07-30T06:43:42;18.50;1.00
8372;DHT22;4223;48.724;8.982;2022-07-30T06:46:09;18.70;1.00
8372;DHT22;4223;48.724;8.982;2022-07-30T06:48:37;18.80;8.30
8372;DHT22;4223;48.724;8.982;2022-07-30T06:51:06;19.00;1.00
8372;DHT22;4223;48.724;8.982;2022-07-30T06:53:33;19.00;99.90
8372;DHT22;4223;48.724;8.982;2022-07-30T06:56:00;19.20;99.90
8372;DHT22;4223;48.724;8.982;2022-07-30T06:58:27;19.30;99.90
8372;DHT22;4223;48.724;8.982;2022-07-30T07:00:54;19.40;99.90
8372;DHT22;4223;48.724;8.982;2022-07-30T07:03:21;19.50;1.00
8372;DHT22;4223;48.724;8.982;2022-07-30T07:05:52;19.60;99.90
8372;DHT22;4223;48.724;8.982;2022-07-30T07:08:18;19.80;1.00
8372;DHT22;4223;48.724;8.982;2022-07-30T07:10:45;20.00;1.00
8372;DHT22;4223;48.724;8.982;2022-07-30T07:13:13;20.00;99.90
8372;DHT22;4223;48.724;8.982;2022-07-30T07:15:40;20.10;18.50
8372;DHT22;4223;48.724;8.982;2022-07-30T07:18:07;20.30;33.10
8372;DHT22;4223;48.724;8.982;2022-07-30T07:20:34;20.50;1.00
8372;DHT22;4223;48.724;8.982;2022-07-30T07:23:02;20.70;1.00
8372;DHT22;4223;48.724;8.982;2022-07-30T07:25:29;20.80;1.00
8372;DHT22;4223;48.724;8.982;2022-07-30T07:27:56;21.10;1.00
8372;DHT22;4223;48.724;8.982;2022-07-30T07:30:23;21.40;1.00
8372;DHT22;4223;48.724;8.982;2022-07-30T07:32:50;21.90;1.00
8372;DHT22;4223;48.724;8.982;2022-07-30T07:35:17;22.40;1.00
8372;DHT22;4223;48.724;8.982;2022-07-30T07:37:44;22.70;1.00
8372;DHT22;4223;48.724;8.982;2022-07-30T07:40:12;23.10;99.90
8372;DHT22;4223;48.724;8.982;2022-07-30T07:42:39;23.50;99.90
8372;DHT22;4223;48.724;8.982;2022-07-30T07:45:07;24.30;99.90
8372;DHT22;4223;48.724;8.982;2022-07-30T07:47:42;24.60;99.90
8372;DHT22;4223;48.724;8.982;2022-07-30T07:50:09;24.80;99.90
8372;DHT22;4223;48.724;8.982;2022-07-30T07:52:36;25.30;99.90
8372;DHT22;4223;48.724;8.982;2022-07-30T07:55:03;25.50;99.90
8372;DHT22;4223;48.724;8.982;2022-07-30T07:57:38;25.80;99.90
8372;DHT22;4223;48.724;8.982;2022-07-30T08:00:06;26.20;99.90
8372;DHT22;4223;48.724;8.982;2022-07-30T08:02:33;25.40;99.90
8372;DHT22;4223;48.724;8.982;2022-07-30T08:05:00;25.40;99.90
8372;DHT22;4223;48.724;8.982;2022-07-30T08:07:28;25.60;99.90
8372;DHT22;4223;48.724;8.982;2022-07-30T08:09:55;24.90;99.90
8372;DHT22;4223;48.724;8.982;2022-07-30T08:12:22;24.80;99.90
8372;DHT22;4223;48.724;8.982;2022-07-30T08:14:50;24.90;99.90
8372;DHT22;4223;48.724;8.982;2022-07-30T08:17:17;25.70;99.90
8372;DHT22;4223;48.724;8.982;2022-07-30T08:19:44;25.50;99.90
8372;DHT22;4223;48.724;8.982;2022-07-30T08:22:11;25.70;99.90
8372;DHT22;4223;48.724;8.982;2022-07-30T08:24:38;26.20;99.90
8372;DHT22;4223;48.724;8.982;2022-07-30T08:27:05;26.10;99.90
8372;DHT22;4223;48.724;8.982;2022-07-30T08:29:32;26.40;99.90
8372;DHT22;4223;48.724;8.982;2022-07-30T08:32:00;26.70;99.90
8372;DHT22;4223;48.724;8.982;2022-07-30T08:34:27;26.80;99.90
8372;DHT22;4223;48.724;8.982;2022-07-30T08:36:54;26.70;99.90
8372;DHT22;4223;48.724;8.982;2022-07-30T08:39:21;26.70;99.90
8372;DHT22;4223;48.724;8.982;2022-07-30T08:41:48;26.40;99.90
8372;DHT22;4223;48.724;8.982;2022-07-30T08:44:16;25.70;99.90
8372;DHT22;4223;48.724;8.982;2022-07-30T08:46:45;26.50;99.90
8372;DHT22;4223;48.724;8.982;2022-07-30T08:49:14;27.10;99.90
8372;DHT22;4223;48.724;8.982;2022-07-30T08:51:42;26.90;99.90
8372;DHT22;4223;48.724;8.982;2022-07-30T08:54:09;26.70;99.90
8372;DHT22;4223;48.724;8.982;2022-07-30T08:56:36;26.50;99.90
8372;DHT22;4223;48.724;8.982;2022-07-30T08:59:03;26.90;99.90
8372;DHT22;4223;48.724;8.982;2022-07-30T09:01:30;27.30;99.90
8372;DHT22;4223;48.724;8.982;2022-07-30T09:03:57;27.20;99.90
8372;DHT22;4223;48.724;8.982;2022-07-30T09:06:26;27.10;99.90
8372;DHT22;4223;48.724;8.982;2022-07-30T09:08:53;27.50;99.90
8372;DHT22;4223;48.724;8.982;2022-07-30T09:11:20;26.30;99.90
8372;DHT22;4223;48.724;8.982;2022-07-30T09:13:47;26.80;99.90
8372;DHT22;4223;48.724;8.982;2022-07-30T09:16:19;26.90;99.90
8372;DHT22;4223;48.724;8.982;2022-07-30T09:18:47;26.60;99.90
8372;DHT22;4223;48.724;8.982;2022-07-30T09:21:16;25.80;99.90
8372;DHT22;4223;48.724;8.982;2022-07-30T09:23:56;25.20;99.90
8372;DHT22;4223;48.724;8.982;2022-07-30T09:26:24;25.70;99.90
8372;DHT22;4223;48.724;8.982;2022-07-30T09:28:51;26.60;99.90
8372;DHT22;4223;48.724;8.982;2022-07-30T09:31:19;27.00;99.90
8372;DHT22;4223;48.724;8.982;2022-07-30T09:33:46;26.50;99.90
8372;DHT22;4223;48.724;8.982;2022-07-30T09:36:15;26.80;99.90
8372;DHT22;4223;48.724;8.982;2022-07-30T09:38:44;27.40;99.90
8372;DHT22;4223;48.724;8.982;2022-07-30T09:41:14;27.40;99.90
8372;DHT22;4223;48.724;8.982;2022-07-30T09:43:43;27.30;99.90
8372;DHT22;4223;48.724;8.982;2022-07-30T09:46:11;27.80;99.90
8372;DHT22;4223;48.724;8.982;2022-07-30T09:48:38;27.50;99.90
8372;DHT22;4223;48.724;8.982;2022-07-30T09:51:05;27.90;99.90
8372;DHT22;4223;48.724;8.982;2022-07-30T09:53:32;27.50;99.90
8372;DHT22;4223;48.724;8.982;2022-07-30T09:56:00;27.70;99.90
8372;DHT22;4223;48.724;8.982;2022-07-30T09:58:46;27.60;99.90
8372;DHT22;4223;48.724;8.982;2022-07-30T10:01:13;27.10;99.90
8372;DHT22;4223;48.724;8.982;2022-07-30T10:03:41;27.40;99.90
8372;DHT22;4223;48.724;8.982;2022-07-30T10:06:09;28.00;99.90
8372;DHT22;4223;48.724;8.982;2022-07-30T10:08:40;27.70;99.90
8372;DHT22;4223;48.724;8.982;2022-07-30T10:11:10;28.00;99.90
8372;DHT22;4223;48.724;8.982;2022-07-30T10:13:38;27.90;99.90
8372;DHT22;4223;48.724;8.982;2022-07-30T10:16:07;28.10;99.90
8372;DHT22;4223;48.724;8.982;2022-07-30T10:18:35;28.50;99.90
8372;DHT22;4223;48.724;8.982;2022-07-30T10:21:02;28.00;99.90
8372;DHT22;4223;48.724;8.982;2022-07-30T10:23:30;27.80;99.90
8372;DHT22;4223;48.724;8.982;2022-07-30T10:25:58;27.20;99.90
8372;DHT22;4223;48.724;8.982;2022-07-30T10:28:26;26.70;99.90
8372;DHT22;4223;48.724;8.982;2022-07-30T10:30:55;27.20;99.90
8372;DHT22;4223;48.724;8.982;2022-07-30T10:33:25;27.50;99.90
8372;DHT22;4223;48.724;8.982;2022-07-30T10:35:53;27.90;99.90
8372;DHT22;4223;48.724;8.982;2022-07-30T10:38:21;27.70;99.90
8372;DHT22;4223;48.724;8.982;2022-07-30T10:40:53;28.20;99.90
8372;DHT22;4223;48.724;8.982;2022-07-30T10:43:44;28.20;99.90
8372;DHT22;4223;48.724;8.982;2022-07-30T10:46:25;28.00;99.90
8372;DHT22;4223;48.724;8.982;2022-07-30T10:49:07;27.50;99.90
8372;DHT22;4223;48.724;8.982;2022-07-30T10:51:44;27.60;99.90
8372;DHT22;4223;48.724;8.982;2022-07-30T10:54:40;27.00;99.90
8372;DHT22;4223;48.724;8.982;2022-07-30T10:57:10;26.50;99.90
8372;DHT22;4223;48.724;8.982;2022-07-30T11:03:13;26.90;99.90
8372;DHT22;4223;48.724;8.982;2022-07-30T11:05:42;27.30;99.90
8372;DHT22;4223;48.724;8.982;2022-07-30T11:08:35;27.60;99.90
8372;DHT22;4223;48.724;8.982;2022-07-30T11:11:04;28.00;99.90
8372;DHT22;4223;48.724;8.982;2022-07-30T11:13:49;28.50;99.90
8372;DHT22;4223;48.724;8.982;2022-07-30T11:16:17;28.10;99.50
8372;DHT22;4223;48.724;8.982;2022-07-30T11:19:03;27.80;99.90
8372;DHT22;4223;48.724;8.982;2022-07-30T11:21:31;27.70;99.90
8372;DHT22;4223;48.724;8.982;2022-07-30T11:23:58;27.80;99.90
8372;DHT22;4223;48.724;8.982;2022-07-30T11:26:48;28.10;99.90
8372;DHT22;4223;48.724;8.982;2022-07-30T11:29:35;28.40;98.90
8372;DHT22;4223;48.724;8.982;2022-07-30T11:32:32;28.00;98.80
8372;DHT22;4223;48.724;8.982;2022-07-30T11:35:18;27.20;97.20
8372;DHT22;4223;48.724;8.982;2022-07-30T11:38:02;26.60;99.50
8372;DHT22;4223;48.724;8.982;2022-07-30T11:40:30;26.30;99.90
8372;DHT22;4223;48.724;8.982;2022-07-30T11:43:20;26.60;99.20
8372;DHT22;4223;48.724;8.982;2022-07-30T11:45:49;27.00;99.90
8372;DHT22;4223;48.724;8.982;2022-07-30T11:48:18;27.40;99.90
8372;DHT22;4223;48.724;8.982;2022-07-30T11:50:46;27.60;98.80
8372;DHT22;4223;48.724;8.982;2022-07-30T11:53:17;27.70;97.80
8372;DHT22;4223;48.724;8.982;2022-07-30T11:55:48;27.30;99.90
8372;DHT22;4223;48.724;8.982;2022-07-30T11:58:23;27.70;98.50
8372;DHT22;4223;48.724;8.982;2022-07-30T12:00:51;28.00;99.10
8372;DHT22;4223;48.724;8.982;2022-07-30T12:03:20;28.10;98.00
8372;DHT22;4223;48.724;8.982;2022-07-30T12:05:48;27.90;96.10
8372;DHT22;4223;48.724;8.982;2022-07-30T12:08:16;28.10;97.30
8372;DHT22;4223;48.724;8.982;2022-07-30T12:10:56;28.00;96.90
8372;DHT22;4223;48.724;8.982;2022-07-30T12:13:24;28.20;97.10
8372;DHT22;4223;48.724;8.982;2022-07-30T12:15:51;28.40;99.90
8372;DHT22;4223;48.724;8.982;2022-07-30T12:18:26;28.40;96.30
8372;DHT22;4223;48.724;8.982;2022-07-30T12:20:54;28.40;97.50
8372;DHT22;4223;48.724;8.982;2022-07-30T12:23:23;28.40;96.70
8372;DHT22;4223;48.724;8.982;2022-07-30T12:25:50;28.30;94.00
8372;DHT22;4223;48.724;8.982;2022-07-30T12:28:22;27.70;94.20
8372;DHT22;4223;48.724;8.982;2022-07-30T12:30:50;27.30;97.10
8372;DHT22;4223;48.724;8.982;2022-07-30T12:33:18;27.10;93.30
8372;DHT22;4223;48.724;8.982;2022-07-30T12:35:46;27.30;96.20
8372;DHT22;4223;48.724;8.982;2022-07-30T12:38:13;27.90;93.50
8372;DHT22;4223;48.724;8.982;2022-07-30T12:40:56;28.10;94.50
8372;DHT22;4223;48.724;8.982;2022-07-30T12:43:46;28.50;95.60
8372;DHT22;4223;48.724;8.982;2022-07-30T12:46:15;28.90;94.60
8372;DHT22;4223;48.724;8.982;2022-07-30T12:48:56;29.00;92.10
8372;DHT22;4223;48.724;8.982;2022-07-30T12:51:26;29.00;92.60
8372;DHT22;4223;48.724;8.982;2022-07-30T12:53:55;28.60;91.00
8372;DHT22;4223;48.724;8.982;2022-07-30T12:56:24;28.50;94.20
8372;DHT22;4223;48.724;8.982;2022-07-30T12:58:52;28.40;92.50
8372;DHT22;4223;48.724;8.982;2022-07-30T13:01:37;28.40;91.10
8372;DHT22;4223;48.724;8.982;2022-07-30T13:04:04;28.00;91.80
8372;DHT22;4223;48.724;8.982;2022-07-30T13:06:31;27.70;96.20
8372;DHT22;4223;48.724;8.982;2022-07-30T13:08:59;27.20;92.70
8372;DHT22;4223;48.724;8.982;2022-07-30T13:11:37;26.80;91.90
8372;DHT22;4223;48.724;8.982;2022-07-30T13:14:05;27.10;93.00
8372;DHT22;4223;48.724;8.982;2022-07-30T13:16:33;26.80;94.10
8372;DHT22;4223;48.724;8.982;2022-07-30T13:19:01;26.70;94.10
8372;DHT22;4223;48.724;8.982;2022-07-30T13:21:28;26.40;92.20
8372;DHT22;4223;48.724;8.982;2022-07-30T13:23:55;26.40;94.40
8372;DHT22;4223;48.724;8.982;2022-07-30T13:26:22;26.70;95.40
8372;DHT22;4223;48.724;8.982;2022-07-30T13:28:50;27.10;95.60
8372;DHT22;4223;48.724;8.982;2022-07-30T13:31:17;27.50;94.50
8372;DHT22;4223;48.724;8.982;2022-07-30T13:33:44;27.40;91.80
8372;DHT22;4223;48.724;8.982;2022-07-30T13:36:11;26.90;93.30
8372;DHT22;4223;48.724;8.982;2022-07-30T13:38:37;26.70;95.30
8372;DHT22;4223;48.724;8.982;2022-07-30T13:41:04;26.90;94.20
8372;DHT22;4223;48.724;8.982;2022-07-30T13:43:31;27.00;92.40
8372;DHT22;4223;48.724;8.982;2022-07-30T13:46:00;26.80;93.60
8372;DHT22;4223;48.724;8.982;2022-07-30T13:48:28;26.70;93.70
8372;DHT22;4223;48.724;8.982;2022-07-30T13:50:55;26.50;96.30
8372;DHT22;4223;48.724;8.982;2022-07-30T13:53:22;26.20;94.30
8372;DHT22;4223;48.724;8.982;2022-07-30T13:55:49;26.20;96.10
8372;DHT22;4223;48.724;8.982;2022-07-30T13:58:16;26.70;95.60
8372;DHT22;4223;48.724;8.982;2022-07-30T14:00:43;27.20;94.20
8372;DHT22;4223;48.724;8.982;2022-07-30T14:03:14;27.50;94.80
8372;DHT22;4223;48.724;8.982;2022-07-30T14:05:41;27.50;92.70
8372;DHT22;4223;48.724;8.982;2022-07-30T14:08:09;27.30;94.60
8372;DHT22;4223;48.724;8.982;2022-07-30T14:10:36;27.10;92.00
8372;DHT22;4223;48.724;8.982;2022-07-30T14:13:05;26.90;99.50
8372;DHT22;4223;48.724;8.982;2022-07-30T14:15:32;26.80;91.80
8372;DHT22;4223;48.724;8.982;2022-07-30T14:17:59;26.90;91.80
8372;DHT22;4223;48.724;8.982;2022-07-30T14:20:28;27.10;93.10
8372;DHT22;4223;48.724;8.982;2022-07-30T14:22:55;27.10;93.40
8372;DHT22;4223;48.724;8.982;2022-07-30T14:25:22;27.40;93.00
8372;DHT22;4223;48.724;8.982;2022-07-30T14:27:49;27.50;91.20
8372;DHT22;4223;48.724;8.982;2022-07-30T14:30:16;27.00;90.60
8372;DHT22;4223;48.724;8.982;2022-07-30T14:32:44;26.70;90.10
8372;DHT22;4223;48.724;8.982;2022-07-30T14:35:11;26.30;91.60
8372;DHT22;4223;48.724;8.982;2022-07-30T14:37:39;26.10;93.50
8372;DHT22;4223;48.724;8.982;2022-07-30T14:40:08;25.90;90.30
8372;DHT22;4223;48.724;8.982;2022-07-30T14:42:35;25.80;91.30
8372;DHT22;4223;48.724;8.982;2022-07-30T14:45:05;25.80;92.50
8372;DHT22;4223;48.724;8.982;2022-07-30T14:47:32;25.90;93.80
8372;DHT22;4223;48.724;8.982;2022-07-30T14:49:59;25.80;92.50
8372;DHT22;4223;48.724;8.982;2022-07-30T14:52:26;25.70;91.80
8372;DHT22;4223;48.724;8.982;2022-07-30T14:54:54;25.70;92.40
8372;DHT22;4223;48.724;8.982;2022-07-30T14:57:21;26.20;92.10
8372;DHT22;4223;48.724;8.982;2022-07-30T14:59:47;26.60;90.70
8372;DHT22;4223;48.724;8.982;2022-07-30T15:02:14;26.50;91.50
8372;DHT22;4223;48.724;8.982;2022-07-30T15:04:41;26.40;91.70
8372;DHT22;4223;48.724;8.982;2022-07-30T15:07:08;26.20;90.60
8372;DHT22;4223;48.724;8.982;2022-07-30T15:09:37;25.90;91.60
8372;DHT22;4223;48.724;8.982;2022-07-30T15:12:06;25.80;91.10
8372;DHT22;4223;48.724;8.982;2022-07-30T15:14:34;25.60;91.80
8372;DHT22;4223;48.724;8.982;2022-07-30T15:17:01;25.60;93.30
8372;DHT22;4223;48.724;8.982;2022-07-30T15:19:28;25.40;92.60
8372;DHT22;4223;48.724;8.982;2022-07-30T15:21:55;25.30;92.10
8372;DHT22;4223;48.724;8.982;2022-07-30T15:24:22;25.20;93.30
8372;DHT22;4223;48.724;8.982;2022-07-30T15:26:49;25.10;94.80
8372;DHT22;4223;48.724;8.982;2022-07-30T15:29:17;25.10;94.50
8372;DHT22;4223;48.724;8.982;2022-07-30T15:31:44;25.60;94.80
8372;DHT22;4223;48.724;8.982;2022-07-30T15:34:11;26.10;92.40
8372;DHT22;4223;48.724;8.982;2022-07-30T15:36:38;26.10;91.20
8372;DHT22;4223;48.724;8.982;2022-07-30T15:39:05;25.90;94.10
8372;DHT22;4223;48.724;8.982;2022-07-30T15:41:32;25.60;92.70
8372;DHT22;4223;48.724;8.982;2022-07-30T15:43:59;25.90;93.00
8372;DHT22;4223;48.724;8.982;2022-07-30T15:46:27;26.10;93.80
8372;DHT22;4223;48.724;8.982;2022-07-30T15:48:54;25.80;92.10
8372;DHT22;4223;48.724;8.982;2022-07-30T15:51:21;25.60;93.10
8372;DHT22;4223;48.724;8.982;2022-07-30T15:53:48;25.30;91.60
8372;DHT22;4223;48.724;8.982;2022-07-30T15:56:15;25.30;92.00
8372;DHT22;4223;48.724;8.982;2022-07-30T15:58:43;25.60;92.90
8372;DHT22;4223;48.724;8.982;2022-07-30T16:01:10;26.00;92.30
8372;DHT22;4223;48.724;8.982;2022-07-30T16:03:38;26.20;93.40
8372;DHT22;4223;48.724;8.982;2022-07-30T16:06:05;26.30;93.30
8372;DHT22;4223;48.724;8.982;2022-07-30T16:08:32;26.20;89.80
8372;DHT22;4223;48.724;8.982;2022-07-30T16:10:59;25.80;91.00
8372;DHT22;4223;48.724;8.982;2022-07-30T16:13:28;25.50;89.90
8372;DHT22;4223;48.724;8.982;2022-07-30T16:15:55;25.40;90.60
8372;DHT22;4223;48.724;8.982;2022-07-30T16:18:22;25.20;90.10